Terminal Aerodrome Forecast
Issued by NWS

Home | Current Version | Previous Version | Text Only | Print | Product List | Glossary On
Versions: 1 2 3 4 5 6 7 8 9 10 11 12 13 14 15 16 17 18 19 20 21 22 23 24 25 26
000
FTUS41 KGYX 281720
TAFLEB
TAF
KLEB 281720Z 2818/2918 00000KT P6SM SCT050
     FM282200 16006KT P6SM BKN050
     FM290800 14006KT P6SM BKN025 PROB30 2908/2912 4SM -SHRA OVC015
     FM291300 14007KT P6SM -SHRA OVC025
     FM291700 13008KT 2SM -SHRA OVC008=

USA.gov is the U.S. government's official web portal to all federal, state and local government web resources and services.